Time;durP1;ratioP1;P1;durP2;ratioP2;P2;SDS_P1;SDS_P2;PMS_P1;PMS_P2;Temp;Humidity;BMP_temperature;BMP_pressure;BME280_temperature;BME280_humidity;BME280_pressure;Samples;Min_cycle;Max_cycle;Signal;HPM_P1;HPM_P2
2022/01/13 00:01:51;;;;;;;50.92;16.52;;;4.20;99.90;;;;;;5072137;28;20117;-79
2022/01/13 00:04:17;;;;;;;43.15;12.93;;;4.30;99.90;;;;;;5071978;28;20036;-79
2022/01/13 00:06:43;;;;;;;72.65;15.77;;;4.20;99.90;;;;;;5055805;28;20203;-79
2022/01/13 00:09:08;;;;;;;41.92;14.82;;;4.20;99.90;;;;;;5090481;28;20434;-79
2022/01/13 00:11:35;;;;;;;37.13;12.73;;;4.30;99.90;;;;;;5089844;28;20282;-80
2022/01/13 00:24:48;;;;;;;36.67;14.02;;;4.40;99.90;;;;;;5091069;28;20060;-79
2022/01/13 00:27:15;;;;;;;34.60;14.43;;;4.40;99.90;;;;;;5071399;28;20048;-77
2022/01/13 00:29:43;;;;;;;34.67;13.43;;;4.40;99.90;;;;;;5090037;28;20096;-80
2022/01/13 00:32:12;;;;;;;32.47;14.13;;;4.50;99.90;;;;;;5090151;28;20118;-79
2022/01/13 00:34:38;;;;;;;34.42;16.50;;;4.50;99.90;;;;;;5089772;28;20028;-79
2022/01/13 00:37:04;;;;;;;36.35;18.13;;;4.50;99.90;;;;;;5089792;28;20040;-79
2022/01/13 00:39:30;;;;;;;44.78;19.10;;;4.50;99.90;;;;;;5089506;28;20117;-79
2022/01/13 00:41:55;;;;;;;42.33;15.77;;;4.50;99.90;;;;;;5089528;28;20042;-80
2022/01/13 00:44:21;;;;;;;44.28;19.00;;;4.60;99.90;;;;;;5088468;28;20440;-79
2022/01/13 00:46:57;;;;;;;30.15;17.20;;;4.60;99.90;;;;;;5089331;28;20127;-78
2022/01/13 00:49:23;;;;;;;43.35;16.77;;;4.50;99.90;;;;;;5089033;28;20056;-79
2022/01/13 00:51:49;;;;;;;33.28;16.63;;;4.70;99.90;;;;;;5089262;28;20040;-78
2022/01/13 00:54:14;;;;;;;44.55;17.85;;;4.60;99.90;;;;;;5089317;28;20054;-78
2022/01/13 00:56:41;;;;;;;33.05;17.50;;;4.60;99.90;;;;;;5091255;28;20544;-82
2022/01/13 00:59:10;;;;;;;36.83;17.15;;;4.50;99.90;;;;;;5089679;28;20076;-80
2022/01/13 01:01:53;;;;;;;37.50;16.70;;;4.60;99.90;;;;;;5089001;28;20328;-79
2022/01/13 01:04:20;;;;;;;36.28;16.67;;;4.60;99.90;;;;;;5089233;28;20097;-80
2022/01/13 01:06:46;;;;;;;43.42;17.88;;;4.60;99.90;;;;;;5089245;28;20051;-80
2022/01/13 01:09:16;;;;;;;46.00;18.08;;;4.60;99.90;;;;;;5089381;28;20039;-78
2022/01/13 01:11:46;;;;;;;38.97;17.42;;;4.60;99.90;;;;;;5089492;28;20044;-79
2022/01/13 01:14:14;;;;;;;55.63;18.80;;;4.60;99.90;;;;;;5088744;28;20036;-79
2022/01/13 01:16:40;;;;;;;49.53;17.92;;;4.60;99.90;;;;;;5089323;28;20044;-78
2022/01/13 01:19:08;;;;;;;52.80;20.33;;;4.60;99.90;;;;;;5088770;28;20482;-78
2022/01/13 01:21:53;;;;;;;43.38;18.60;;;4.60;99.90;;;;;;5088500;28;20035;-79
2022/01/13 01:24:42;;;;;;;42.10;18.20;;;4.50;99.90;;;;;;5088498;28;20068;-78
2022/01/13 01:27:15;;;;;;;35.72;14.98;;;4.60;99.90;;;;;;5087649;28;20043;-79
2022/01/13 01:29:50;;;;;;;35.90;15.75;;;4.50;99.90;;;;;;5070793;28;20493;-80
2022/01/13 01:32:17;;;;;;;41.65;18.77;;;4.50;99.90;;;;;;5088371;28;20078;-78
2022/01/13 01:34:55;;;;;;;38.90;17.33;;;4.60;99.90;;;;;;5088817;28;20169;-79
2022/01/13 01:37:24;;;;;;;41.58;17.23;;;4.70;99.90;;;;;;5088523;28;20427;-78
2022/01/13 01:39:50;;;;;;;60.42;20.42;;;4.70;99.90;;;;;;5088417;28;20444;-80
2022/01/13 01:42:19;;;;;;;45.65;19.00;;;4.70;99.90;;;;;;5087205;28;20490;-79
2022/01/13 01:44:46;;;;;;;45.40;19.65;;;4.60;99.90;;;;;;5088180;28;20070;-78
2022/01/13 01:47:14;;;;;;;56.95;19.40;;;4.60;99.90;;;;;;5088529;28;20040;-79
2022/01/13 01:49:43;;;;;;;45.08;19.58;;;4.70;99.90;;;;;;5088768;28;20083;-79
2022/01/13 01:52:11;;;;;;;43.25;17.10;;;4.70;99.90;;;;;;5088627;28;20428;-80
2022/01/13 01:54:38;;;;;;;49.67;17.88;;;4.70;99.90;;;;;;5088043;28;20052;-78
2022/01/13 01:57:04;;;;;;;45.40;15.73;;;4.70;99.90;;;;;;5069396;28;20051;-78
2022/01/13 01:59:33;;;;;;;50.60;20.58;;;4.70;99.90;;;;;;5087843;28;20138;-80
2022/01/13 02:01:59;;;;;;;55.70;18.15;;;4.70;99.90;;;;;;5087260;28;20040;-79
2022/01/13 02:04:27;;;;;;;45.85;16.23;;;4.70;99.90;;;;;;5087718;28;20579;-79
2022/01/13 02:06:54;;;;;;;39.38;17.38;;;4.70;99.90;;;;;;5069899;28;20039;-78
2022/01/13 02:09:21;;;;;;;41.22;15.98;;;4.60;99.90;;;;;;5087683;28;20065;-79
2022/01/13 02:11:52;;;;;;;37.70;16.17;;;4.60;99.90;;;;;;5087969;28;20035;-79
2022/01/13 02:16:56;;;;;;;39.72;14.68;;;4.70;99.90;;;;;;5087668;28;20051;-80
2022/01/13 02:19:24;;;;;;;37.87;16.10;;;4.70;99.90;;;;;;5087813;28;20093;-80
2022/01/13 02:21:51;;;;;;;30.77;15.93;;;4.70;99.90;;;;;;5087731;28;20496;-80
2022/01/13 02:24:16;;;;;;;31.88;14.00;;;4.70;99.90;;;;;;5087524;28;20044;-79
2022/01/13 02:26:42;;;;;;;27.42;16.13;;;4.70;99.90;;;;;;5087614;28;20036;-78
2022/01/13 02:29:08;;;;;;;34.03;14.95;;;4.60;99.90;;;;;;5086711;28;20499;-79
2022/01/13 02:31:34;;;;;;;34.70;15.60;;;4.70;99.90;;;;;;5087210;28;20166;-78
2022/01/13 02:34:00;;;;;;;41.67;14.57;;;4.60;99.90;;;;;;5069688;28;20040;-79
2022/01/13 02:36:27;;;;;;;41.63;16.90;;;4.70;99.90;;;;;;5087448;28;20063;-80
2022/01/13 02:38:54;;;;;;;36.20;15.30;;;4.70;99.90;;;;;;5087754;28;20508;-79
2022/01/13 02:41:24;;;;;;;59.05;17.73;;;4.60;99.90;;;;;;5087130;28;20497;-78
2022/01/13 02:43:55;;;;;;;48.40;15.10;;;4.60;99.90;;;;;;5086633;28;20075;-79
2022/01/13 02:49:08;;;;;;;49.10;15.52;;;4.60;99.90;;;;;;5087455;28;20591;-79
2022/01/13 02:51:35;;;;;;;54.25;17.17;;;4.60;99.90;;;;;;5087025;28;20063;-79
2022/01/13 02:54:01;;;;;;;58.70;20.98;;;4.60;99.90;;;;;;5087316;28;20062;-79
2022/01/13 02:56:27;;;;;;;72.25;19.70;;;4.70;99.90;;;;;;5087457;28;20124;-79
2022/01/13 02:58:53;;;;;;;61.75;18.33;;;4.70;99.90;;;;;;5086651;28;20364;-78
2022/01/13 03:01:19;;;;;;;129.20;21.48;;;4.70;99.90;;;;;;5069329;28;20079;-81
2022/01/13 03:03:45;;;;;;;149.15;22.95;;;4.70;99.90;;;;;;5087585;28;20040;-78
2022/01/13 03:06:13;;;;;;;88.20;21.75;;;4.70;99.90;;;;;;5087445;28;20040;-79
2022/01/13 03:08:43;;;;;;;145.38;26.05;;;4.70;99.90;;;;;;5087538;28;20076;-79
2022/01/13 03:11:09;;;;;;;106.90;21.27;;;4.70;99.90;;;;;;5087582;28;20063;-77
2022/01/13 03:13:35;;;;;;;118.68;25.25;;;4.70;99.90;;;;;;5089756;28;20051;-79
2022/01/13 03:16:08;;;;;;;90.63;22.48;;;4.70;99.90;;;;;;5091574;28;20040;-78
2022/01/13 03:18:35;;;;;;;77.40;21.05;;;4.80;99.90;;;;;;5073070;28;20058;-79
2022/01/13 03:21:01;;;;;;;90.97;21.58;;;4.80;99.90;;;;;;5091389;28;20447;-78
2022/01/13 03:23:26;;;;;;;104.85;21.55;;;4.80;99.90;;;;;;5092387;28;20097;-79
2022/01/13 03:25:53;;;;;;;107.80;23.60;;;4.80;99.90;;;;;;5092360;28;20405;-78
2022/01/13 03:28:29;;;;;;;97.70;23.25;;;4.70;99.90;;;;;;5091047;28;20043;-79
2022/01/13 03:30:56;;;;;;;75.03;20.42;;;4.80;99.90;;;;;;5103027;28;20047;-79
2022/01/13 03:33:22;;;;;;;68.20;20.38;;;4.80;99.90;;;;;;5073080;28;20051;-78
2022/01/13 03:35:48;;;;;;;85.78;23.83;;;4.90;99.90;;;;;;5073136;28;20040;-79
2022/01/13 03:38:14;;;;;;;67.50;20.95;;;4.90;99.90;;;;;;5090878;28;20043;-78
2022/01/13 03:40:40;;;;;;;124.32;23.88;;;4.80;99.90;;;;;;5072756;28;20097;-79
2022/01/13 03:43:06;;;;;;;92.93;20.92;;;4.90;99.90;;;;;;5071931;28;20032;-78
2022/01/13 03:45:32;;;;;;;75.40;21.90;;;4.80;99.90;;;;;;5090425;28;20052;-79
2022/01/13 03:48:03;;;;;;;75.05;20.13;;;4.90;99.90;;;;;;5072650;28;20051;-79
2022/01/13 03:50:28;;;;;;;62.58;20.60;;;4.90;99.90;;;;;;5090355;28;20048;-79
2022/01/13 03:52:57;;;;;;;86.28;21.23;;;5.00;99.90;;;;;;5090794;28;21199;-80
2022/01/13 03:55:35;;;;;;;140.38;24.73;;;5.00;99.90;;;;;;5072001;28;20051;-79
2022/01/13 03:58:38;;;;;;;92.47;21.88;;;5.00;99.90;;;;;;5089625;28;20047;-79
2022/01/13 04:01:41;;;;;;;102.03;21.67;;;4.90;99.90;;;;;;5091256;28;20113;-79
2022/01/13 04:04:07;;;;;;;103.88;21.67;;;5.00;99.90;;;;;;5090618;28;20040;-79
2022/01/13 04:06:39;;;;;;;118.35;21.95;;;4.80;99.90;;;;;;5072130;28;20051;-79
2022/01/13 04:09:27;;;;;;;122.20;27.33;;;4.80;99.90;;;;;;5072035;28;20086;-79
2022/01/13 04:11:52;;;;;;;140.35;25.77;;;4.90;99.90;;;;;;5071177;28;20039;-78
2022/01/13 04:14:27;;;;;;;101.88;25.83;;;4.90;99.90;;;;;;5090006;28;20522;-79
2022/01/13 04:16:53;;;;;;;145.05;25.10;;;4.90;99.90;;;;;;5090120;28;20044;-79
2022/01/13 04:19:18;;;;;;;135.20;23.08;;;4.90;99.90;;;;;;5089777;28;20564;-79
2022/01/13 04:21:44;;;;;;;124.43;24.00;;;4.90;99.90;;;;;;5090022;28;20486;-78
2022/01/13 04:24:11;;;;;;;167.48;25.48;;;4.90;99.90;;;;;;5089843;28;20032;-79
2022/01/13 04:26:38;;;;;;;132.95;25.20;;;4.90;99.90;;;;;;5088557;28;20042;-78
2022/01/13 04:29:20;;;;;;;173.35;27.02;;;4.90;99.90;;;;;;5071717;28;20076;-80
2022/01/13 04:31:49;;;;;;;139.68;22.58;;;4.80;99.90;;;;;;5071784;28;20072;-79
2022/01/13 04:34:15;;;;;;;102.05;23.23;;;4.90;99.90;;;;;;5089844;28;20044;-78
2022/01/13 04:36:40;;;;;;;150.02;25.33;;;4.90;99.90;;;;;;5090084;28;20524;-79
2022/01/13 04:39:08;;;;;;;142.02;27.02;;;4.90;99.90;;;;;;5089817;28;20047;-79
2022/01/13 04:41:34;;;;;;;170.95;27.45;;;4.80;99.90;;;;;;5088773;28;20048;-79
2022/01/13 04:44:02;;;;;;;92.47;22.50;;;4.90;99.90;;;;;;5089494;28;20044;-78
2022/01/13 04:46:27;;;;;;;113.15;24.10;;;4.80;99.90;;;;;;5089548;28;20127;-79
2022/01/13 04:48:53;;;;;;;136.32;24.85;;;4.90;99.90;;;;;;5089793;28;20107;-80
2022/01/13 04:51:19;;;;;;;195.88;27.65;;;4.90;99.90;;;;;;5089263;28;20048;-78
2022/01/13 04:53:45;;;;;;;209.48;31.52;;;4.90;99.90;;;;;;5089939;28;20089;-79
2022/01/13 04:56:15;;;;;;;133.05;25.90;;;5.00;99.90;;;;;;5089605;28;20134;-79
2022/01/13 04:58:41;;;;;;;97.18;23.08;;;5.00;99.90;;;;;;5070690;28;20040;-79
2022/01/13 05:01:07;;;;;;;118.15;25.35;;;5.00;99.90;;;;;;5089169;28;20093;-80
2022/01/13 05:03:33;;;;;;;121.93;25.73;;;5.10;99.90;;;;;;5089147;28;20089;-78
2022/01/13 05:05:58;;;;;;;132.77;26.77;;;5.10;99.90;;;;;;5071212;28;20529;-78
2022/01/13 05:08:24;;;;;;;133.70;27.00;;;5.10;99.90;;;;;;5088954;28;20123;-79
2022/01/13 05:10:49;;;;;;;155.77;29.13;;;5.10;99.90;;;;;;5089147;28;20036;-79
2022/01/13 05:13:15;;;;;;;130.50;26.70;;;5.10;99.90;;;;;;5070298;28;20032;-79
2022/01/13 05:15:44;;;;;;;144.90;28.48;;;5.00;99.90;;;;;;5071032;28;20101;-78
2022/01/13 05:18:25;;;;;;;157.27;29.80;;;5.10;99.90;;;;;;5089223;28;20050;-79
2022/01/13 05:21:03;;;;;;;172.00;28.23;;;5.20;99.90;;;;;;5088915;28;20044;-79
2022/01/13 05:23:29;;;;;;;147.95;30.33;;;5.10;99.90;;;;;;5088905;28;20085;-79
2022/01/13 05:25:55;;;;;;;135.80;28.08;;;5.20;99.90;;;;;;5088756;28;20055;-79
2022/01/13 05:28:20;;;;;;;159.20;31.63;;;5.10;99.90;;;;;;5087947;28;20044;-77
2022/01/13 05:30:46;;;;;;;162.63;29.90;;;5.10;99.90;;;;;;5088848;28;20047;-79
2022/01/13 05:33:12;;;;;;;153.63;30.77;;;5.20;99.90;;;;;;5089563;28;20473;-78
2022/01/13 05:35:38;;;;;;;161.57;28.27;;;5.20;99.90;;;;;;5088469;28;20028;-79
2022/01/13 05:38:09;;;;;;;151.68;30.88;;;5.20;99.90;;;;;;5089021;28;20123;-79
2022/01/13 05:40:35;;;;;;;;;;;5.20;99.90;;;;;;5089546;28;20043;-79
2022/01/13 05:43:01;;;;;;;129.77;26.45;;;5.20;99.90;;;;;;5088691;28;19920;-78
2022/01/13 05:45:29;;;;;;;150.60;30.52;;;5.20;99.90;;;;;;5088968;28;20052;-78
2022/01/13 05:47:57;;;;;;;143.45;28.30;;;5.30;99.90;;;;;;5089080;28;20060;-79
2022/01/13 05:50:24;;;;;;;124.75;28.05;;;5.20;99.90;;;;;;5070029;28;20044;-78
2022/01/13 05:52:49;;;;;;;180.82;32.45;;;5.30;99.90;;;;;;5088424;28;20093;-80
2022/01/13 05:55:16;;;;;;;175.65;31.83;;;5.20;99.90;;;;;;5088054;28;20075;-78
2022/01/13 05:57:42;;;;;;;169.88;34.55;;;5.30;99.90;;;;;;5069156;28;20043;-78
2022/01/13 06:00:10;;;;;;;142.98;31.30;;;5.40;99.90;;;;;;5070149;28;20040;-78
2022/01/13 06:02:36;;;;;;;186.05;32.75;;;5.30;99.90;;;;;;5087832;28;20036;-77
2022/01/13 06:05:02;;;;;;;152.25;32.45;;;5.30;99.90;;;;;;5070008;28;20380;-78
2022/01/13 06:07:27;;;;;;;159.00;32.53;;;5.30;99.90;;;;;;5088031;28;20478;-77
2022/01/13 06:09:53;;;;;;;171.75;34.70;;;5.30;99.90;;;;;;5087576;28;20044;-78
2022/01/13 06:12:21;;;;;;;160.32;31.05;;;5.40;99.90;;;;;;5086902;28;20395;-80
2022/01/13 06:14:46;;;;;;;118.18;29.27;;;5.30;99.90;;;;;;5088025;28;20123;-79
2022/01/13 06:17:12;;;;;;;170.77;30.52;;;5.30;99.90;;;;;;5088256;28;20128;-77
2022/01/13 06:19:37;;;;;;;192.45;38.42;;;5.40;99.90;;;;;;5069626;28;20545;-79
2022/01/13 06:22:03;;;;;;;159.68;34.67;;;5.50;99.90;;;;;;5087917;28;20048;-78
2022/01/13 06:24:29;;;;;;;208.23;36.08;;;5.40;99.90;;;;;;5087345;28;20100;-79
2022/01/13 06:26:55;;;;;;;201.27;39.78;;;5.40;99.90;;;;;;5068803;28;20040;-78
2022/01/13 06:29:20;;;;;;;210.85;36.03;;;5.50;99.90;;;;;;5088022;28;20079;-78
2022/01/13 06:31:46;;;;;;;188.43;38.78;;;5.50;99.90;;;;;;5088250;28;20047;-80
2022/01/13 06:34:11;;;;;;;148.13;34.88;;;5.40;99.90;;;;;;5088600;28;20052;-80
2022/01/13 06:36:37;;;;;;;182.95;34.85;;;5.50;99.90;;;;;;5087784;28;20089;-79
2022/01/13 06:39:03;;;;;;;184.00;34.22;;;5.60;99.90;;;;;;5087824;28;20064;-77
2022/01/13 06:41:28;;;;;;;174.45;35.72;;;5.40;99.90;;;;;;5086403;28;20379;-80
2022/01/13 06:43:54;;;;;;;125.00;33.75;;;5.50;99.90;;;;;;5070196;28;20064;-78
2022/01/13 06:46:20;;;;;;;163.02;34.92;;;5.50;99.90;;;;;;5068946;28;20044;-79
2022/01/13 06:48:46;;;;;;;179.35;35.67;;;5.50;99.90;;;;;;5087155;28;20080;-79
2022/01/13 06:51:12;;;;;;;142.90;30.80;;;5.50;99.90;;;;;;5069403;28;20486;-79
2022/01/13 06:53:37;;;;;;;154.20;35.55;;;5.40;99.90;;;;;;5087147;28;20072;-79
2022/01/13 06:56:04;;;;;;;143.93;31.23;;;5.50;99.90;;;;;;5087414;28;20154;-77
2022/01/13 06:58:30;;;;;;;153.30;33.72;;;5.50;99.90;;;;;;5086139;28;20063;-78
2022/01/13 07:00:55;;;;;;;174.02;36.10;;;5.50;99.90;;;;;;5087175;28;20458;-77
2022/01/13 07:03:22;;;;;;;124.72;33.80;;;5.50;99.90;;;;;;5087023;28;20067;-79
2022/01/13 07:05:47;;;;;;;110.22;30.88;;;5.50;99.90;;;;;;5087063;28;20539;-78
2022/01/13 07:08:13;;;;;;;152.52;34.67;;;5.50;99.90;;;;;;5087373;28;20119;-78
2022/01/13 07:10:40;;;;;;;178.32;36.70;;;5.50;99.90;;;;;;5087333;28;20040;-77
2022/01/13 07:13:06;;;;;;;156.80;35.47;;;5.60;99.90;;;;;;5068288;28;20048;-77
2022/01/13 07:15:32;;;;;;;146.35;32.05;;;5.50;99.90;;;;;;5068731;28;20044;-77
2022/01/13 07:17:58;;;;;;;138.15;31.38;;;5.50;99.90;;;;;;5087145;28;20052;-80
2022/01/13 07:20:25;;;;;;;124.18;29.02;;;5.50;99.90;;;;;;5068524;28;20040;-78
2022/01/13 07:22:51;;;;;;;116.18;29.65;;;5.50;99.90;;;;;;5086854;28;20074;-78
2022/01/13 07:25:17;;;;;;;139.80;32.22;;;5.40;99.90;;;;;;5087084;28;20482;-78
2022/01/13 07:27:43;;;;;;;119.65;29.80;;;5.40;99.90;;;;;;5086215;28;20043;-78
2022/01/13 07:30:10;;;;;;;115.53;31.90;;;5.40;99.90;;;;;;5087297;28;20048;-79
2022/01/13 07:32:37;;;;;;;103.75;29.00;;;5.40;99.90;;;;;;5086614;28;20043;-77
2022/01/13 07:35:03;;;;;;;129.63;30.67;;;5.40;99.90;;;;;;5069146;28;20044;-79
2022/01/13 07:37:29;;;;;;;103.13;28.05;;;5.40;99.90;;;;;;5068441;28;20409;-77
2022/01/13 07:39:54;;;;;;;84.70;26.05;;;5.50;99.90;;;;;;5086827;28;20036;-78
2022/01/13 07:42:23;;;;;;;128.20;31.40;;;5.40;99.90;;;;;;5085893;28;20040;-77
2022/01/13 07:44:48;;;;;;;105.20;30.15;;;5.50;99.90;;;;;;5068804;28;20134;-79
2022/01/13 07:47:14;;;;;;;119.13;28.95;;;5.40;99.90;;;;;;5086730;28;20383;-77
2022/01/13 07:49:39;;;;;;;126.20;29.80;;;5.40;99.90;;;;;;5087485;28;20446;-78
2022/01/13 07:52:05;;;;;;;154.40;33.40;;;5.50;99.90;;;;;;5086846;28;20041;-78
2022/01/13 07:54:32;;;;;;;95.43;29.02;;;5.40;99.90;;;;;;5086737;28;20071;-78
2022/01/13 07:56:58;;;;;;;100.85;29.35;;;5.40;99.90;;;;;;5085375;28;20559;-78
2022/01/13 07:59:27;;;;;;;105.70;27.63;;;5.40;99.90;;;;;;5069755;28;20233;-78
2022/01/13 08:01:54;;;;;;;112.40;27.92;;;5.50;99.90;;;;;;5090504;28;20059;-79
2022/01/13 08:04:21;;;;;;;119.22;32.60;;;5.50;99.90;;;;;;5090575;28;20044;-78
2022/01/13 08:06:47;;;;;;;130.25;35.25;;;5.50;99.90;;;;;;5072077;28;20048;-78
2022/01/13 08:09:12;;;;;;;128.80;30.52;;;5.50;99.90;;;;;;5090754;28;20100;-79
2022/01/13 08:11:38;;;;;;;128.02;33.00;;;5.40;99.90;;;;;;5071124;28;20508;-79
2022/01/13 08:14:03;;;;;;;109.13;31.75;;;5.40;99.90;;;;;;5090684;28;20251;-79
2022/01/13 08:16:33;;;;;;;130.13;31.08;;;5.50;99.90;;;;;;5073518;28;20048;-78
2022/01/13 08:21:43;;;;;;;99.05;31.02;;;5.40;99.90;;;;;;5072331;28;20052;-79
2022/01/13 08:24:09;;;;;;;107.22;32.90;;;5.50;99.90;;;;;;5090670;28;20075;-79
2022/01/13 08:26:35;;;;;;;133.05;36.72;;;5.50;99.90;;;;;;5089339;28;20067;-77
2022/01/13 08:29:00;;;;;;;124.10;32.75;;;5.50;99.90;;;;;;5072074;28;20048;-77
2022/01/13 08:31:26;;;;;;;93.82;31.15;;;5.50;99.90;;;;;;5089678;28;20044;-78
2022/01/13 08:33:51;;;;;;;93.38;31.20;;;5.50;99.90;;;;;;5071943;28;20035;-79
2022/01/13 08:36:17;;;;;;;96.57;32.42;;;5.60;99.90;;;;;;5089849;28;20101;-79
2022/01/13 08:38:43;;;;;;;109.88;33.83;;;5.60;99.90;;;;;;5090082;28;20043;-77
2022/01/13 08:41:08;;;;;;;96.70;32.60;;;5.60;99.90;;;;;;5088867;28;20048;-78
2022/01/13 08:43:34;;;;;;;102.57;34.35;;;5.70;99.90;;;;;;5089426;28;20048;-78
2022/01/13 08:46:03;;;;;;;106.30;33.28;;;5.80;99.90;;;;;;5089610;28;20074;-78
2022/01/13 08:48:29;;;;;;;98.20;32.95;;;5.80;99.90;;;;;;5071467;28;20048;-78
2022/01/13 08:50:56;;;;;;;101.28;34.97;;;5.80;99.90;;;;;;5071391;28;20510;-79
2022/01/13 08:53:22;;;;;;;96.65;35.05;;;5.80;99.90;;;;;;5071145;28;20052;-79
2022/01/13 08:55:48;;;;;;;100.22;34.75;;;5.80;99.90;;;;;;5070654;28;20436;-76
2022/01/13 08:58:14;;;;;;;119.45;38.33;;;5.80;99.90;;;;;;5089563;28;20089;-71
2022/01/13 09:00:41;;;;;;;95.25;32.75;;;5.80;99.90;;;;;;5089569;28;20044;-78
2022/01/13 09:03:07;;;;;;;107.25;34.60;;;5.90;99.90;;;;;;5089551;28;20464;-78
2022/01/13 09:05:33;;;;;;;92.15;35.25;;;5.90;99.90;;;;;;5071287;28;20052;-78
2022/01/13 09:07:59;;;;;;;86.80;34.08;;;5.90;99.90;;;;;;5089635;28;20457;-79
2022/01/13 09:10:25;;;;;;;101.63;39.53;;;5.90;99.90;;;;;;5089046;28;20044;-78
2022/01/13 09:12:51;;;;;;;90.68;33.92;;;6.00;99.90;;;;;;5088741;28;20119;-79
2022/01/13 09:15:19;;;;;;;84.10;32.22;;;5.90;99.90;;;;;;5070595;28;20047;-79
2022/01/13 09:17:51;;;;;;;99.30;34.90;;;5.90;99.90;;;;;;5089212;28;20119;-78
2022/01/13 09:20:16;;;;;;;96.90;33.40;;;6.00;99.90;;;;;;5070678;28;20047;-79
2022/01/13 09:22:43;;;;;;;98.28;36.75;;;6.00;99.90;;;;;;5089269;28;20044;-79
2022/01/13 09:25:11;;;;;;;90.93;35.42;;;6.00;99.90;;;;;;5072331;28;20047;-78
2022/01/13 09:27:40;;;;;;;103.18;38.55;;;6.00;99.90;;;;;;5088008;28;20036;-79
2022/01/13 09:30:08;;;;;;;89.45;33.05;;;6.00;99.90;;;;;;5089450;28;20048;-77
2022/01/13 09:32:35;;;;;;;102.30;37.60;;;6.00;99.90;;;;;;5090266;28;20067;-79
2022/01/13 09:35:01;;;;;;;112.53;39.50;;;6.10;99.90;;;;;;5089779;28;20435;-79
2022/01/13 09:37:27;;;;;;;99.93;37.20;;;6.00;99.90;;;;;;5089582;28;20058;-77
2022/01/13 09:39:53;;;;;;;93.28;33.20;;;6.10;99.90;;;;;;5072238;28;20035;-78
2022/01/13 09:42:20;;;;;;;97.88;33.33;;;6.10;99.90;;;;;;5089450;28;20169;-78
2022/01/13 09:44:46;;;;;;;97.00;37.75;;;6.00;99.90;;;;;;5090313;28;20055;-78
2022/01/13 09:47:13;;;;;;;95.40;36.83;;;6.10;99.90;;;;;;5071521;28;20486;-78
2022/01/13 09:49:39;;;;;;;104.93;36.72;;;6.10;99.90;;;;;;5071534;28;20051;-78
2022/01/13 09:52:05;;;;;;;91.65;37.58;;;6.20;99.90;;;;;;5054844;28;20402;-77
2022/01/13 09:54:30;;;;;;;95.70;37.30;;;6.10;99.90;;;;;;5089366;28;20044;-77
2022/01/13 09:56:56;;;;;;;102.35;36.08;;;6.10;99.90;;;;;;5087616;28;20040;-79
2022/01/13 09:59:22;;;;;;;97.20;37.40;;;6.10;99.90;;;;;;5070172;28;20435;-78
2022/01/13 10:01:47;;;;;;;97.70;38.80;;;6.10;99.90;;;;;;5070235;28;20429;-77
2022/01/13 10:04:13;;;;;;;91.95;36.42;;;6.10;99.90;;;;;;5070448;28;20550;-79
2022/01/13 10:06:44;;;;;;;103.53;38.58;;;6.10;99.90;;;;;;5088292;28;20173;-79
2022/01/13 10:09:10;;;;;;;152.20;41.60;;;6.20;99.90;;;;;;5088063;28;20036;-79
2022/01/13 10:11:54;;;;;;;126.40;40.97;;;6.20;99.90;;;;;;5086648;28;20055;-76
2022/01/13 10:17:00;;;;;;;104.68;41.20;;;6.20;99.90;;;;;;5069823;28;20056;-77
2022/01/13 10:19:42;;;;;;;101.80;42.08;;;6.30;99.90;;;;;;5052990;28;20059;-79
2022/01/13 10:22:07;;;;;;;109.63;42.22;;;6.30;99.90;;;;;;5069299;28;20059;-80
2022/01/13 10:24:36;;;;;;;104.13;44.20;;;6.30;99.90;;;;;;5087682;28;20571;-78
2022/01/13 10:27:11;;;;;;;123.63;45.10;;;6.30;99.90;;;;;;5086866;28;20500;-78
2022/01/13 10:29:36;;;;;;;104.88;43.08;;;6.30;99.90;;;;;;5087480;28;20040;-78
2022/01/13 10:32:02;;;;;;;91.78;42.08;;;6.40;99.90;;;;;;5087655;28;20405;-79
2022/01/13 10:34:28;;;;;;;87.43;38.15;;;6.30;99.90;;;;;;5087733;28;20393;-79
2022/01/13 10:37:13;;;;;;;96.88;43.17;;;6.50;99.90;;;;;;5087748;28;20044;-78
2022/01/13 10:39:45;;;;;;;113.25;44.17;;;6.40;99.90;;;;;;5069913;28;20125;-78
2022/01/13 10:42:20;;;;;;;101.40;40.92;;;6.40;99.90;;;;;;5068869;28;20055;-79
2022/01/13 10:44:54;;;;;;;98.35;41.42;;;6.50;99.90;;;;;;5054265;28;20378;-78
2022/01/13 10:47:20;;;;;;;98.22;41.65;;;6.50;99.90;;;;;;5071233;28;20043;-79
2022/01/13 10:49:50;;;;;;;144.48;45.33;;;6.60;99.90;;;;;;5088624;28;20036;-78
2022/01/13 10:52:24;;;;;;;124.07;43.40;;;6.50;99.90;;;;;;5087549;28;20550;-78
2022/01/13 10:55:05;;;;;;;96.97;40.35;;;6.40;99.90;;;;;;5069874;28;20097;-78
2022/01/13 10:57:31;;;;;;;97.63;38.20;;;6.50;99.90;;;;;;5086290;28;20040;-79
2022/01/13 10:59:56;;;;;;;98.68;40.78;;;6.60;99.90;;;;;;5087619;28;20043;-78
2022/01/13 11:02:23;;;;;;;81.65;38.95;;;6.50;99.90;;;;;;5087199;28;20036;-78
2022/01/13 11:04:49;;;;;;;83.18;40.05;;;6.60;99.90;;;;;;5087589;28;20040;-80
2022/01/13 11:07:23;;;;;;;79.45;36.58;;;6.60;99.90;;;;;;5087137;28;20040;-79
2022/01/13 11:09:55;;;;;;;83.43;34.90;;;6.60;99.90;;;;;;5087538;28;20162;-78
2022/01/13 11:12:33;;;;;;;109.47;39.03;;;6.60;99.90;;;;;;5086223;28;20040;-78
2022/01/13 11:15:05;;;;;;;91.50;35.33;;;6.50;99.90;;;;;;5068993;28;20040;-78
2022/01/13 11:17:33;;;;;;;106.22;40.40;;;6.50;99.90;;;;;;5087322;28;20126;-78
2022/01/13 11:19:59;;;;;;;86.63;34.97;;;6.60;99.90;;;;;;5069396;28;20413;-78
2022/01/13 11:22:25;;;;;;;80.13;35.63;;;6.50;99.90;;;;;;5068928;28;20036;-78
2022/01/13 11:24:51;;;;;;;95.15;38.13;;;6.50;99.90;;;;;;5069151;28;20040;-78
2022/01/13 11:27:18;;;;;;;77.15;34.88;;;6.60;99.90;;;;;;5085939;28;20044;-78
2022/01/13 11:29:46;;;;;;;86.05;35.47;;;6.60;99.90;;;;;;5086953;28;20047;-78
2022/01/13 11:32:14;;;;;;;77.53;32.97;;;6.50;99.90;;;;;;5087480;28;20032;-79
2022/01/13 11:34:41;;;;;;;62.22;30.15;;;6.60;99.90;;;;;;5088816;28;20032;-78
2022/01/13 11:37:07;;;;;;;63.13;31.92;;;6.60;99.90;;;;;;5073151;28;20409;-78
2022/01/13 11:39:45;;;;;;;69.30;35.03;;;6.70;99.90;;;;;;5090844;28;20123;-78
2022/01/13 11:42:14;;;;;;;71.97;34.47;;;6.60;99.90;;;;;;5090192;28;20036;-78
2022/01/13 11:44:41;;;;;;;67.07;34.53;;;6.70;99.90;;;;;;5072702;28;20501;-77
2022/01/13 11:47:18;;;;;;;64.25;34.78;;;6.70;99.90;;;;;;5090507;28;20040;-78
2022/01/13 11:49:56;;;;;;;59.47;33.33;;;6.70;99.90;;;;;;5090685;28;20043;-73
2022/01/13 11:52:51;;;;;;;72.82;33.15;;;6.80;99.90;;;;;;5090363;28;20050;-78
2022/01/13 11:55:22;;;;;;;44.40;27.92;;;6.90;99.90;;;;;;5071879;28;20043;-73
2022/01/13 11:57:49;;;;;;;54.40;30.85;;;6.90;99.90;;;;;;5090437;28;20072;-78
2022/01/13 12:00:31;;;;;;;51.90;30.52;;;6.80;99.90;;;;;;5072117;28;20032;-78
2022/01/13 12:02:57;;;;;;;59.03;31.75;;;6.90;99.90;;;;;;5090452;28;20185;-79
2022/01/13 12:05:26;;;;;;;51.10;27.48;;;6.90;99.90;;;;;;5090348;28;20039;-78
2022/01/13 12:07:54;;;;;;;51.72;31.00;;;6.90;99.90;;;;;;5090328;28;20089;-79
2022/01/13 12:10:35;;;;;;;54.38;31.02;;;7.00;99.90;;;;;;5088795;28;20129;-80
2022/01/13 12:13:31;;;;;;;54.95;31.10;;;7.00;99.90;;;;;;5072450;28;20398;-79
2022/01/13 12:15:57;;;;;;;59.20;31.83;;;7.00;99.90;;;;;;5090324;28;20084;-79
2022/01/13 12:18:59;;;;;;;52.42;31.40;;;7.00;99.90;;;;;;5089906;28;20040;-78
2022/01/13 12:21:29;;;;;;;58.03;32.70;;;7.10;99.90;;;;;;5071709;28;20090;-78
2022/01/13 12:23:56;;;;;;;60.17;31.27;;;7.10;99.90;;;;;;5071924;28;20044;-78
2022/01/13 12:26:33;;;;;;;65.43;32.10;;;7.20;99.90;;;;;;5088865;28;20074;-79
2022/01/13 12:29:14;;;;;;;64.22;28.90;;;7.20;99.90;;;;;;5089769;28;20089;-79
2022/01/13 12:31:53;;;;;;;;;;;7.20;99.90;;;;;;5090811;28;20051;-78
2022/01/13 12:34:29;;;;;;;60.93;29.87;;;7.30;99.90;;;;;;5071555;28;19973;-79
2022/01/13 12:36:59;;;;;;;58.05;31.10;;;7.30;99.90;;;;;;5071882;28;20457;-79
2022/01/13 12:39:27;;;;;;;47.53;28.30;;;7.30;99.90;;;;;;5089593;28;20050;-79
2022/01/13 12:42:03;;;;;;;44.13;26.15;;;7.40;99.90;;;;;;5088977;28;20097;-79
2022/01/13 12:47:15;;;;;;;53.17;27.92;;;7.40;99.90;;;;;;5089548;28;20047;-78
2022/01/13 12:49:41;;;;;;;48.00;28.05;;;7.50;99.90;;;;;;5090111;28;20113;-77
2022/01/13 12:52:07;;;;;;;49.88;26.05;;;7.50;99.90;;;;;;5090138;28;20466;-79
2022/01/13 12:54:33;;;;;;;44.00;27.48;;;7.40;99.90;;;;;;5089657;28;20054;-80
2022/01/13 12:57:06;;;;;;;41.80;24.20;;;7.50;99.90;;;;;;5089038;28;20431;-78
2022/01/13 12:59:33;;;;;;;46.10;27.67;;;7.50;99.90;;;;;;5071188;28;20079;-79
2022/01/13 13:02:00;;;;;;;37.63;25.40;;;7.50;99.90;;;;;;5071564;28;20044;-80
2022/01/13 13:04:29;;;;;;;39.50;24.50;;;7.60;99.90;;;;;;5071087;28;20051;-80